Centennial — WDB4024 — position and weather

sailwx.info

Track history (hours):
 
Tides and Currents Weather Stations Pressure Air Temp Water Temp Dewpoint Dewpoint Depression Visibility Wind Speed Wind Dir Waves Ship Positions

Centennial

Owner: University of Washington, Friday Harbor Labs, Friday Harbor, WA. More information available from US FCC via Universal Licensing System and Coast Guard Vessel Documentation Center.

Last reported at 2017-Jan-23 01:15 UTC. Time now 2017-Jan-23 04:28 UTC.
Position N 47°39' W 122°19'.

Length 20 m.

Type: Dredging. MMSI: 369277000.

Date/timePositionNaut miles runAvg speedWind from/ knotsBaromVisibWave heightAir tempDewpointWater temp
2017-Jan-23 01:15N 47°39' W 122°19'0 0.0
2017-Jan-23 00:12N 47°39' W 122°19'0 0.0
2017-Jan-22 23:33N 47°39' W 122°19'0 0.0
2017-Jan-22 22:33N 47°39' W 122°19'1 0.8
2017-Jan-22 21:33N 47°39' W 122°20'4 3.9
2017-Jan-22 20:33N 47°41' W 122°25'1 1.0
2017-Jan-22 19:33N 47°42' W 122°25'1 0.8
2017-Jan-22 18:33N 47°42' W 122°24'2 1.7
2017-Jan-22 17:33N 47°41' W 122°24'4 3.6
2017-Jan-22 16:33N 47°39' W 122°20'1 1.0
2017-Jan-22 15:30N 47°39' W 122°19'0 0.0
2017-Jan-22 14:33N 47°39' W 122°19'0 0.0
2017-Jan-22 13:33N 47°39' W 122°19'0 0.0
2017-Jan-22 12:24N 47°39' W 122°19'0 0.0
2017-Jan-22 11:33N 47°39' W 122°19'0 0.0
2017-Jan-22 10:30N 47°39' W 122°19'0 0.0
2017-Jan-22 09:33N 47°39' W 122°19'0 0.0
2017-Jan-22 08:30N 47°39' W 122°19'0 0.0
2017-Jan-22 07:33N 47°39' W 122°19'0 0.0
2017-Jan-22 04:21N 47°39' W 122°19'0 0.0
2017-Jan-22 03:33N 47°39' W 122°19'0 0.0
2017-Jan-22 00:30N 47°39' W 122°19'0 0.0
2017-Jan-21 23:30N 47°39' W 122°19'0 0.0
2017-Jan-21 21:12N 47°39' W 122°19'0 0.0
2017-Jan-21 20:30N 47°39' W 122°19'0 0.0
2017-Jan-21 19:27N 47°39' W 122°19'0 0.0
2017-Jan-21 17:18N 47°39' W 122°19'0 0.0
2017-Jan-21 16:30N 47°39' W 122°19'0 0.0
2017-Jan-21 15:30N 47°39' W 122°19'0 0.0
2017-Jan-21 14:30N 47°39' W 122°19'0 0.0
2017-Jan-21 13:33N 47°39' W 122°19'0 0.0
2017-Jan-21 12:30N 47°39' W 122°19'0 0.0
2017-Jan-21 11:30N 47°39' W 122°19'0 0.0
2017-Jan-21 10:33N 47°39' W 122°19'0 0.0
2017-Jan-21 09:33N 47°39' W 122°19'0 0.0
2017-Jan-21 08:33N 47°39' W 122°19'0 0.0
2017-Jan-21 07:30N 47°39' W 122°19'0 0.0
2017-Jan-21 06:24N 47°39' W 122°19'0 0.0
2017-Jan-21 04:06N 47°39' W 122°19'0 0.0
2017-Jan-21 02:30N 47°39' W 122°19'0 0.0
2017-Jan-21 01:30N 47°39' W 122°19'0 0.0
2017-Jan-21 00:30N 47°39' W 122°19'0 0.0
2017-Jan-20 23:30N 47°39' W 122°19'0 0.0
2017-Jan-20 22:24N 47°39' W 122°19'0 0.0
2017-Jan-20 21:33N 47°39' W 122°19'0 0.0
2017-Jan-20 18:30N 47°39' W 122°19'0 0.0
2017-Jan-20 16:30N 47°39' W 122°19'0 0.0
2017-Jan-20 14:33N 47°39' W 122°19'0 0.0
2017-Jan-20 13:33N 47°39' W 122°19'0 0.0
2017-Jan-20 12:30N 47°39' W 122°19'0 0.0
2017-Jan-20 11:33N 47°39' W 122°19'0 0.0
2017-Jan-20 10:33N 47°39' W 122°19'0 0.0
2017-Jan-20 09:30N 47°39' W 122°19'0 0.0
2017-Jan-20 08:33N 47°39' W 122°19'0 0.0
2017-Jan-20 07:33N 47°39' W 122°19'0 0.0
2017-Jan-20 06:30N 47°39' W 122°19'0 0.0
2017-Jan-19 21:30N 47°39' W 122°19'1 0.3
2017-Jan-19 19:03N 47°39' W 122°20'0 0.5
2017-Jan-19 18:33N 47°39' W 122°20'1 0.3
2017-Jan-19 14:25N 47°39' W 122°19'0 0.0
2017-Jan-19 13:25N 47°39' W 122°19'0 0.0
2017-Jan-19 12:10N 47°39' W 122°19'0 0.0
2017-Jan-19 11:22N 47°39' W 122°19'0 0.0
2017-Jan-19 10:10N 47°39' W 122°19'0 0.0
2017-Jan-19 09:16N 47°39' W 122°19'0 0.0
2017-Jan-19 08:16N 47°39' W 122°19'0 0.0
2017-Jan-19 07:31N 47°39' W 122°19'0 0.0
2017-Jan-19 06:31N 47°39' W 122°19'0 0.0
2017-Jan-18 14:24N 47°39' W 122°19'0 0.0
2017-Jan-18 13:18N 47°39' W 122°19'0 0.0
2017-Jan-18 12:30N 47°39' W 122°19'0 0.0
2017-Jan-18 11:33N 47°39' W 122°19'0 0.0
2017-Jan-18 10:33N 47°39' W 122°19'0 0.0
2017-Jan-18 09:33N 47°39' W 122°19'0 0.0
2017-Jan-18 08:30N 47°39' W 122°19'0 0.0
2017-Jan-18 07:30N 47°39' W 122°19'0 0.0
2017-Jan-18 04:25N 47°39' W 122°19'0 0.0
2017-Jan-18 03:31N 47°39' W 122°19'0 0.0
2017-Jan-18 02:07N 47°39' W 122°19'0 0.0
2017-Jan-16 22:31N 47°39' W 122°19'0 0.0
2017-Jan-16 14:28N 47°39' W 122°19'0 0.0
2017-Jan-16 13:28N 47°39' W 122°19'0 0.0
2017-Jan-16 12:31N 47°39' W 122°19'0 0.0
2017-Jan-16 11:31N 47°39' W 122°19'0 0.0
2017-Jan-16 10:28N 47°39' W 122°19'0 0.0
2017-Jan-16 09:31N 47°39' W 122°19'0 0.0
2017-Jan-16 08:31N 47°39' W 122°19'0 0.0
2017-Jan-16 07:31N 47°39' W 122°19'0 0.0
2017-Jan-16 06:31N 47°39' W 122°19'0 0.0
2017-Jan-16 01:07N 47°39' W 122°19'0 0.0
2017-Jan-16 00:22N 47°39' W 122°19'0 0.0
2017-Jan-15 23:28N 47°39' W 122°19'0 0.0
2017-Jan-15 19:07N 47°39' W 122°19'0 0.0
2017-Jan-15 18:22N 47°39' W 122°19'0 0.0
2017-Jan-15 14:28N 47°39' W 122°19'0 0.0
2017-Jan-15 13:31N 47°39' W 122°19'0 0.0
2017-Jan-15 12:10N 47°39' W 122°19'0 0.0
2017-Jan-15 11:28N 47°39' W 122°19'0 0.0
2017-Jan-15 10:28N 47°39' W 122°19'0 0.0
2017-Jan-15 09:31N 47°39' W 122°19'0 0.0
2017-Jan-15 08:28N 47°39' W 122°19'0 0.0
2017-Jan-15 07:31N 47°39' W 122°19'0 0.0
2017-Jan-15 06:28N 47°39' W 122°19'0 0.0
2017-Jan-15 04:31N 47°39' W 122°19'0 0.0
2017-Jan-15 03:31N 47°39' W 122°19'0 0.0
2017-Jan-15 02:31N 47°39' W 122°19'0 0.0
2017-Jan-15 01:31N 47°39' W 122°19'0 0.0
2017-Jan-15 00:31N 47°39' W 122°19'0 0.0
2017-Jan-14 23:31N 47°39' W 122°19'0 0.0
2017-Jan-14 22:13N 47°39' W 122°19'0 0.0
2017-Jan-14 21:13N 47°39' W 122°19'0 0.0
2017-Jan-14 20:28N 47°39' W 122°19'0 0.0
2017-Jan-14 18:31N 47°39' W 122°19'0 0.0
2017-Jan-14 17:31N 47°39' W 122°19'0 0.0
2017-Jan-14 14:19N 47°39' W 122°19'0 0.0
2017-Jan-14 13:28N 47°39' W 122°19'0 0.0
2017-Jan-14 12:31N 47°39' W 122°19'0 0.0
2017-Jan-14 11:28N 47°39' W 122°19'0 0.0
2017-Jan-14 10:31N 47°39' W 122°19'0 0.0
2017-Jan-14 09:31N 47°39' W 122°19'0 0.0
2017-Jan-14 08:31N 47°39' W 122°19'0 0.0
2017-Jan-14 07:31N 47°39' W 122°19'0 0.0
2017-Jan-14 06:31N 47°39' W 122°19'0 0.0
2017-Jan-14 05:07N 47°39' W 122°19'0 0.0
2017-Jan-14 04:31N 47°39' W 122°19'0 0.0
2017-Jan-13 23:31N 47°39' W 122°19'0 0.0
2017-Jan-13 21:28N 47°39' W 122°19'0 0.0
2017-Jan-13 20:25N 47°39' W 122°19'0 0.0
2017-Jan-13 19:29N 47°39' W 122°19'0 0.0
2017-Jan-13 18:28N 47°39' W 122°19'0 0.0
2017-Jan-13 17:31N 47°39' W 122°19'0 0.0
2017-Jan-13 14:28N 47°39' W 122°19'0 0.0
2017-Jan-13 13:28N 47°39' W 122°19'0 0.0
2017-Jan-13 12:29N 47°39' W 122°19'0 0.0
2017-Jan-13 11:29N 47°39' W 122°19'0 0.0
2017-Jan-13 10:29N 47°39' W 122°19'0 0.0
2017-Jan-13 09:29N 47°39' W 122°19'0 0.0
2017-Jan-13 08:29N 47°39' W 122°19'0 0.0
2017-Jan-13 07:29N 47°39' W 122°19'0 0.0
2017-Jan-13 04:32N 47°39' W 122°19'0 0.0
2017-Jan-13 01:32N 47°39' W 122°19'  
Track history (hours):
 
Tides and Currents Weather Stations Pressure Air Temp Water Temp Dewpoint Dewpoint Depression Visibility Wind Speed Wind Dir Waves Ship Positions

Centennial

Owner: University of Washington, Friday Harbor Labs, Friday Harbor, WA. More information available from US FCC via Universal Licensing System and Coast Guard Vessel Documentation Center.

Last reported at 2017-Jan-23 01:15 UTC. Time now 2017-Jan-23 04:28 UTC.
Position N 47°39' W 122°19'.

Length 20 m.

Type: Dredging. MMSI: 369277000.

Date/timePositionNaut miles runAvg speedWind from/ knotsBaromVisibWave heightAir tempDewpointWater temp
2017-Jan-23 01:15N 47°39' W 122°19'0 0.0
2017-Jan-23 00:12N 47°39' W 122°19'0 0.0
2017-Jan-22 23:33N 47°39' W 122°19'0 0.0
2017-Jan-22 22:33N 47°39' W 122°19'1 0.8
2017-Jan-22 21:33N 47°39' W 122°20'4 3.9
2017-Jan-22 20:33N 47°41' W 122°25'1 1.0
2017-Jan-22 19:33N 47°42' W 122°25'1 0.8
2017-Jan-22 18:33N 47°42' W 122°24'2 1.7
2017-Jan-22 17:33N 47°41' W 122°24'4 3.6
2017-Jan-22 16:33N 47°39' W 122°20'1 1.0
2017-Jan-22 15:30N 47°39' W 122°19'0 0.0
2017-Jan-22 14:33N 47°39' W 122°19'0 0.0
2017-Jan-22 13:33N 47°39' W 122°19'0 0.0
2017-Jan-22 12:24N 47°39' W 122°19'0 0.0
2017-Jan-22 11:33N 47°39' W 122°19'0 0.0
2017-Jan-22 10:30N 47°39' W 122°19'0 0.0
2017-Jan-22 09:33N 47°39' W 122°19'0 0.0
2017-Jan-22 08:30N 47°39' W 122°19'0 0.0
2017-Jan-22 07:33N 47°39' W 122°19'0 0.0
2017-Jan-22 04:21N 47°39' W 122°19'0 0.0
2017-Jan-22 03:33N 47°39' W 122°19'0 0.0
2017-Jan-22 00:30N 47°39' W 122°19'0 0.0
2017-Jan-21 23:30N 47°39' W 122°19'0 0.0
2017-Jan-21 21:12N 47°39' W 122°19'0 0.0
2017-Jan-21 20:30N 47°39' W 122°19'0 0.0
2017-Jan-21 19:27N 47°39' W 122°19'0 0.0
2017-Jan-21 17:18N 47°39' W 122°19'0 0.0
2017-Jan-21 16:30N 47°39' W 122°19'0 0.0
2017-Jan-21 15:30N 47°39' W 122°19'0 0.0
2017-Jan-21 14:30N 47°39' W 122°19'0 0.0
2017-Jan-21 13:33N 47°39' W 122°19'0 0.0
2017-Jan-21 12:30N 47°39' W 122°19'0 0.0
2017-Jan-21 11:30N 47°39' W 122°19'0 0.0
2017-Jan-21 10:33N 47°39' W 122°19'0 0.0
2017-Jan-21 09:33N 47°39' W 122°19'0 0.0
2017-Jan-21 08:33N 47°39' W 122°19'0 0.0
2017-Jan-21 07:30N 47°39' W 122°19'0 0.0
2017-Jan-21 06:24N 47°39' W 122°19'0 0.0
2017-Jan-21 04:06N 47°39' W 122°19'0 0.0
2017-Jan-21 02:30N 47°39' W 122°19'0 0.0
2017-Jan-21 01:30N 47°39' W 122°19'0 0.0
2017-Jan-21 00:30N 47°39' W 122°19'0 0.0
2017-Jan-20 23:30N 47°39' W 122°19'0 0.0
2017-Jan-20 22:24N 47°39' W 122°19'0 0.0
2017-Jan-20 21:33N 47°39' W 122°19'0 0.0
2017-Jan-20 18:30N 47°39' W 122°19'0 0.0
2017-Jan-20 16:30N 47°39' W 122°19'0 0.0
2017-Jan-20 14:33N 47°39' W 122°19'0 0.0
2017-Jan-20 13:33N 47°39' W 122°19'0 0.0
2017-Jan-20 12:30N 47°39' W 122°19'0 0.0
2017-Jan-20 11:33N 47°39' W 122°19'0 0.0
2017-Jan-20 10:33N 47°39' W 122°19'0 0.0
2017-Jan-20 09:30N 47°39' W 122°19'0 0.0
2017-Jan-20 08:33N 47°39' W 122°19'0 0.0
2017-Jan-20 07:33N 47°39' W 122°19'0 0.0
2017-Jan-20 06:30N 47°39' W 122°19'0 0.0
2017-Jan-19 21:30N 47°39' W 122°19'1 0.3
2017-Jan-19 19:03N 47°39' W 122°20'0 0.5
2017-Jan-19 18:33N 47°39' W 122°20'1 0.3
2017-Jan-19 14:25N 47°39' W 122°19'0 0.0
2017-Jan-19 13:25N 47°39' W 122°19'0 0.0
2017-Jan-19 12:10N 47°39' W 122°19'0 0.0
2017-Jan-19 11:22N 47°39' W 122°19'0 0.0
2017-Jan-19 10:10N 47°39' W 122°19'0 0.0
2017-Jan-19 09:16N 47°39' W 122°19'0 0.0
2017-Jan-19 08:16N 47°39' W 122°19'0 0.0
2017-Jan-19 07:31N 47°39' W 122°19'0 0.0
2017-Jan-19 06:31N 47°39' W 122°19'0 0.0
2017-Jan-18 14:24N 47°39' W 122°19'0 0.0
2017-Jan-18 13:18N 47°39' W 122°19'0 0.0
2017-Jan-18 12:30N 47°39' W 122°19'0 0.0
2017-Jan-18 11:33N 47°39' W 122°19'0 0.0
2017-Jan-18 10:33N 47°39' W 122°19'0 0.0
2017-Jan-18 09:33N 47°39' W 122°19'0 0.0
2017-Jan-18 08:30N 47°39' W 122°19'0 0.0
2017-Jan-18 07:30N 47°39' W 122°19'0 0.0
2017-Jan-18 04:25N 47°39' W 122°19'0 0.0
2017-Jan-18 03:31N 47°39' W 122°19'0 0.0
2017-Jan-18 02:07N 47°39' W 122°19'0 0.0
2017-Jan-16 22:31N 47°39' W 122°19'0 0.0
2017-Jan-16 14:28N 47°39' W 122°19'0 0.0
2017-Jan-16 13:28N 47°39' W 122°19'0 0.0
2017-Jan-16 12:31N 47°39' W 122°19'0 0.0
2017-Jan-16 11:31N 47°39' W 122°19'0 0.0
2017-Jan-16 10:28N 47°39' W 122°19'0 0.0
2017-Jan-16 09:31N 47°39' W 122°19'0 0.0
2017-Jan-16 08:31N 47°39' W 122°19'0 0.0
2017-Jan-16 07:31N 47°39' W 122°19'0 0.0
2017-Jan-16 06:31N 47°39' W 122°19'0 0.0
2017-Jan-16 01:07N 47°39' W 122°19'0 0.0
2017-Jan-16 00:22N 47°39' W 122°19'0 0.0
2017-Jan-15 23:28N 47°39' W 122°19'0 0.0
2017-Jan-15 19:07N 47°39' W 122°19'0 0.0
2017-Jan-15 18:22N 47°39' W 122°19'0 0.0
2017-Jan-15 14:28N 47°39' W 122°19'0 0.0
2017-Jan-15 13:31N 47°39' W 122°19'0 0.0
2017-Jan-15 12:10N 47°39' W 122°19'0 0.0
2017-Jan-15 11:28N 47°39' W 122°19'0 0.0
2017-Jan-15 10:28N 47°39' W 122°19'0 0.0
2017-Jan-15 09:31N 47°39' W 122°19'0 0.0
2017-Jan-15 08:28N 47°39' W 122°19'0 0.0
2017-Jan-15 07:31N 47°39' W 122°19'0 0.0
2017-Jan-15 06:28N 47°39' W 122°19'0 0.0
2017-Jan-15 04:31N 47°39' W 122°19'0 0.0
2017-Jan-15 03:31N 47°39' W 122°19'0 0.0
2017-Jan-15 02:31N 47°39' W 122°19'0 0.0
2017-Jan-15 01:31N 47°39' W 122°19'0 0.0
2017-Jan-15 00:31N 47°39' W 122°19'0 0.0
2017-Jan-14 23:31N 47°39' W 122°19'0 0.0
2017-Jan-14 22:13N 47°39' W 122°19'0 0.0
2017-Jan-14 21:13N 47°39' W 122°19'0 0.0
2017-Jan-14 20:28N 47°39' W 122°19'0 0.0
2017-Jan-14 18:31N 47°39' W 122°19'0 0.0
2017-Jan-14 17:31N 47°39' W 122°19'0 0.0
2017-Jan-14 14:19N 47°39' W 122°19'0 0.0
2017-Jan-14 13:28N 47°39' W 122°19'0 0.0
2017-Jan-14 12:31N 47°39' W 122°19'0 0.0
2017-Jan-14 11:28N 47°39' W 122°19'0 0.0
2017-Jan-14 10:31N 47°39' W 122°19'0 0.0
2017-Jan-14 09:31N 47°39' W 122°19'0 0.0
2017-Jan-14 08:31N 47°39' W 122°19'0 0.0
2017-Jan-14 07:31N 47°39' W 122°19'0 0.0
2017-Jan-14 06:31N 47°39' W 122°19'0 0.0
2017-Jan-14 05:07N 47°39' W 122°19'0 0.0
2017-Jan-14 04:31N 47°39' W 122°19'0 0.0
2017-Jan-13 23:31N 47°39' W 122°19'0 0.0
2017-Jan-13 21:28N 47°39' W 122°19'0 0.0
2017-Jan-13 20:25N 47°39' W 122°19'0 0.0
2017-Jan-13 19:29N 47°39' W 122°19'0 0.0
2017-Jan-13 18:28N 47°39' W 122°19'0 0.0
2017-Jan-13 17:31N 47°39' W 122°19'0 0.0
2017-Jan-13 14:28N 47°39' W 122°19'0 0.0
2017-Jan-13 13:28N 47°39' W 122°19'0 0.0
2017-Jan-13 12:29N 47°39' W 122°19'0 0.0
2017-Jan-13 11:29N 47°39' W 122°19'0 0.0
2017-Jan-13 10:29N 47°39' W 122°19'0 0.0
2017-Jan-13 09:29N 47°39' W 122°19'0 0.0
2017-Jan-13 08:29N 47°39' W 122°19'0 0.0
2017-Jan-13 07:29N 47°39' W 122°19'0 0.0
2017-Jan-13 04:32N 47°39' W 122°19'0 0.0
2017-Jan-13 01:32N 47°39' W 122°19'  

Dump ship's entire track history